createdAt,value
2019-02-26T00:01:18.519Z,18.20
2019-02-26T00:03:46.416Z,18.10
2019-02-26T00:06:16.773Z,18.10
2019-02-26T00:08:49.526Z,18.10
2019-02-26T00:11:18.271Z,18.10
2019-02-26T00:13:49.846Z,18.10
2019-02-26T00:16:20.544Z,18.10
2019-02-26T00:18:50.163Z,18.10
2019-02-26T00:21:20.472Z,18.00
2019-02-26T00:23:52.951Z,18.00
2019-02-26T00:26:22.433Z,18.00
2019-02-26T00:28:52.033Z,18.00
2019-02-26T00:31:23.819Z,18.00
2019-02-26T00:33:52.794Z,18.00
2019-02-26T00:36:22.333Z,18.00
2019-02-26T00:38:51.833Z,18.00
2019-02-26T00:41:22.887Z,17.90
2019-02-26T00:43:55.349Z,17.90
2019-02-26T00:46:28.118Z,17.90
2019-02-26T00:48:59.067Z,17.90
2019-02-26T00:51:28.736Z,17.90
2019-02-26T00:53:59.861Z,17.90
2019-02-26T00:56:31.511Z,17.90
2019-02-26T00:59:00.584Z,17.80
2019-02-26T01:01:30.090Z,17.80
2019-02-26T01:03:59.684Z,17.80
2019-02-26T01:06:31.055Z,17.80
2019-02-26T01:09:01.977Z,17.80
2019-02-26T01:11:31.602Z,17.80
2019-02-26T01:14:01.118Z,17.80
2019-02-26T01:16:30.604Z,17.70
2019-02-26T01:19:00.087Z,17.70
2019-02-26T01:21:31.133Z,17.70
2019-02-26T01:24:01.726Z,17.70
2019-02-26T01:26:31.963Z,17.70
2019-02-26T01:29:01.520Z,17.70
2019-02-26T01:31:32.121Z,17.70
2019-02-26T01:34:02.294Z,17.70
2019-02-26T01:36:31.830Z,17.70
2019-02-26T01:39:01.327Z,17.70
2019-02-26T01:41:30.837Z,17.60
2019-02-26T01:44:00.439Z,17.60
2019-02-26T01:46:30.458Z,17.60
2019-02-26T01:49:02.089Z,17.60
2019-02-26T01:51:32.265Z,17.60
2019-02-26T01:54:01.759Z,17.60
2019-02-26T01:56:31.247Z,17.60
2019-02-26T01:59:02.339Z,17.60
2019-02-26T02:01:31.934Z,17.60
2019-02-26T02:04:01.430Z,17.50
2019-02-26T02:06:33.106Z,17.50
2019-02-26T02:09:02.098Z,17.50
2019-02-26T02:11:33.326Z,17.50
2019-02-26T02:14:04.232Z,17.50
2019-02-26T02:16:33.924Z,17.50
2019-02-26T02:19:03.411Z,17.50
2019-02-26T02:21:35.524Z,17.40
2019-02-26T02:24:08.239Z,17.40
2019-02-26T02:26:36.033Z,17.40
2019-02-26T02:29:05.571Z,17.40
2019-02-26T02:31:37.223Z,17.40
2019-02-26T02:34:06.259Z,17.40
2019-02-26T02:36:35.775Z,17.40
2019-02-26T02:39:10.373Z,17.40
2019-02-26T02:41:39.361Z,17.40
2019-02-26T02:44:12.374Z,17.30
2019-02-26T02:46:42.480Z,17.30
2019-02-26T02:49:13.209Z,17.30
2019-02-26T02:51:43.370Z,17.30
2019-02-26T02:54:15.316Z,17.30
2019-02-26T02:56:44.433Z,17.20
2019-02-26T02:59:14.651Z,17.30
2019-02-26T03:01:48.347Z,17.20
2019-02-26T03:04:19.506Z,17.20
2019-02-26T03:06:47.520Z,17.20
2019-02-26T03:09:17.801Z,17.20
2019-02-26T03:11:49.709Z,17.20
2019-02-26T03:14:19.346Z,17.20
2019-02-26T03:16:51.403Z,17.20
2019-02-26T03:19:20.048Z,17.20
2019-02-26T03:21:52.622Z,17.20
2019-02-26T03:24:25.386Z,17.20
2019-02-26T03:26:54.639Z,17.20
2019-02-26T03:29:24.674Z,17.20
2019-02-26T03:31:55.584Z,17.10
2019-02-26T03:34:25.970Z,17.10
2019-02-26T03:36:57.387Z,17.10
2019-02-26T03:39:26.783Z,17.10
2019-02-26T03:41:56.481Z,17.10
2019-02-26T03:44:29.577Z,17.10
2019-02-26T03:46:57.232Z,17.10
2019-02-26T03:49:27.240Z,17.10
2019-02-26T03:51:59.435Z,17.10
2019-02-26T03:54:27.899Z,17.10
2019-02-26T03:56:57.640Z,17.00
2019-02-26T03:59:27.136Z,17.00
2019-02-26T04:01:56.688Z,16.90
2019-02-26T04:04:28.334Z,16.90
2019-02-26T04:06:58.496Z,16.90
2019-02-26T04:09:28.511Z,16.80
2019-02-26T04:11:58.021Z,16.80
2019-02-26T04:14:28.796Z,16.80
2019-02-26T04:17:00.737Z,16.80
2019-02-26T04:19:29.844Z,16.80
2019-02-26T04:22:30.534Z,16.70
2019-02-26T04:25:06.387Z,16.70
2019-02-26T04:28:33.128Z,16.70
2019-02-26T04:31:27.879Z,16.70
2019-02-26T04:34:19.521Z,16.70
2019-02-26T04:37:32.738Z,16.70
2019-02-26T04:40:41.159Z,16.70
2019-02-26T04:44:03.770Z,16.60
2019-02-26T04:47:00.376Z,16.60
2019-02-26T04:49:33.396Z,16.60
2019-02-26T04:52:03.052Z,16.60
2019-02-26T04:54:33.720Z,16.60
2019-02-26T04:57:04.591Z,16.60
2019-02-26T04:59:34.806Z,16.60
2019-02-26T05:02:05.577Z,16.70
2019-02-26T05:04:36.901Z,16.70
2019-02-26T05:07:08.064Z,16.70
2019-02-26T05:09:37.377Z,16.60
2019-02-26T05:12:28.248Z,16.70
2019-02-26T05:14:57.154Z,16.70
2019-02-26T05:17:30.123Z,16.60
2019-02-26T05:19:57.830Z,16.60
2019-02-26T05:22:29.790Z,16.70
2019-02-26T05:24:58.453Z,16.70
2019-02-26T05:27:27.973Z,16.70
2019-02-26T05:29:57.559Z,16.70
2019-02-26T05:32:29.857Z,16.70
2019-02-26T05:34:58.260Z,16.80
2019-02-26T05:37:29.041Z,16.70
2019-02-26T05:39:58.871Z,16.70
2019-02-26T05:42:28.423Z,16.70
2019-02-26T05:45:00.627Z,16.70
2019-02-26T05:47:29.128Z,16.70
2019-02-26T05:49:59.541Z,16.80
2019-02-26T05:52:30.862Z,16.90
2019-02-26T05:55:01.023Z,16.10
2019-02-26T05:57:32.613Z,15.40
2019-02-26T06:00:01.804Z,14.90
2019-02-26T06:02:31.270Z,14.60
2019-02-26T06:05:00.793Z,14.20
2019-02-26T06:07:33.625Z,14.10
2019-02-26T06:10:01.639Z,14.00
2019-02-26T06:12:32.644Z,13.60
2019-02-26T06:15:07.379Z,13.40
2019-02-26T06:17:35.195Z,13.20
2019-02-26T06:20:16.406Z,13.50
2019-02-26T06:22:45.916Z,14.10
2019-02-26T06:25:20.549Z,14.50
2019-02-26T06:27:46.622Z,14.80
2019-02-26T06:30:16.208Z,15.00
2019-02-26T06:32:45.822Z,15.20
2019-02-26T06:35:19.001Z,15.40
2019-02-26T06:37:47.607Z,15.50
2019-02-26T06:40:17.199Z,15.60
2019-02-26T06:42:46.740Z,15.60
2019-02-26T06:45:16.969Z,15.60
2019-02-26T06:47:48.436Z,15.70
2019-02-26T06:50:18.940Z,15.70
2019-02-26T06:52:50.594Z,15.80
2019-02-26T06:55:19.755Z,15.80
2019-02-26T06:57:50.839Z,15.80
2019-02-26T07:00:23.801Z,15.80
2019-02-26T07:02:51.616Z,15.90
2019-02-26T07:05:23.873Z,15.90
2019-02-26T07:07:54.087Z,16.00
2019-02-26T07:10:26.130Z,16.00
2019-02-26T07:12:54.642Z,16.00
2019-02-26T07:15:24.231Z,16.00
2019-02-26T07:17:53.766Z,16.00
2019-02-26T07:20:23.322Z,16.10
2019-02-26T07:22:52.827Z,16.10
2019-02-26T07:25:22.338Z,16.10
2019-02-26T07:27:53.629Z,16.10
2019-02-26T07:30:22.999Z,16.10
2019-02-26T07:32:52.502Z,16.10
2019-02-26T07:35:22.043Z,16.10
2019-02-26T07:37:52.368Z,16.10
2019-02-26T07:40:24.607Z,16.10
2019-02-26T07:42:53.847Z,16.20
2019-02-26T07:45:24.983Z,16.20
2019-02-26T07:47:56.406Z,16.20
2019-02-26T07:50:25.885Z,16.10
2019-02-26T07:52:57.592Z,16.20
2019-02-26T07:55:27.584Z,16.20
2019-02-26T07:57:57.358Z,16.20
2019-02-26T08:00:26.853Z,16.20
2019-02-26T08:02:57.781Z,16.20
2019-02-26T08:05:28.895Z,16.20
2019-02-26T08:07:58.610Z,16.20
2019-02-26T08:10:28.100Z,16.20
2019-02-26T08:12:59.217Z,16.30
2019-02-26T08:15:30.297Z,16.30
2019-02-26T08:18:01.294Z,16.30
2019-02-26T08:20:33.014Z,16.30
2019-02-26T08:23:02.347Z,16.40
2019-02-26T08:25:31.852Z,16.40
2019-02-26T08:28:01.449Z,16.40
2019-02-26T08:30:30.990Z,16.50
2019-02-26T08:33:02.679Z,16.50
2019-02-26T08:35:31.731Z,16.50
2019-02-26T08:38:01.247Z,16.60
2019-02-26T08:40:30.740Z,16.60
2019-02-26T08:43:00.281Z,16.60
2019-02-26T08:45:31.021Z,16.60
2019-02-26T08:48:00.798Z,16.70
2019-02-26T08:50:33.038Z,16.70
2019-02-26T08:53:01.567Z,16.70
2019-02-26T08:55:31.069Z,16.70
2019-02-26T08:58:00.602Z,16.70
2019-02-26T09:00:30.135Z,16.70
2019-02-26T09:02:59.702Z,16.80
2019-02-26T09:05:31.734Z,16.70
2019-02-26T09:08:00.491Z,16.80
2019-02-26T09:10:30.007Z,16.80
2019-02-26T09:12:59.536Z,16.80
2019-02-26T09:15:31.235Z,16.80
2019-02-26T09:18:00.186Z,16.80
2019-02-26T09:20:29.743Z,16.80
2019-02-26T09:23:01.434Z,16.80
2019-02-26T09:25:31.596Z,16.90
2019-02-26T09:28:01.847Z,16.90
2019-02-26T09:30:33.421Z,16.90
2019-02-26T09:33:03.422Z,16.90
2019-02-26T09:35:33.656Z,16.90
2019-02-26T09:38:03.230Z,17.00
2019-02-26T09:40:34.410Z,17.00
2019-02-26T09:43:05.958Z,17.00
2019-02-26T09:45:35.063Z,17.00
2019-02-26T09:48:04.556Z,17.00
2019-02-26T09:50:36.097Z,17.10
2019-02-26T09:53:05.333Z,17.10
2019-02-26T09:55:34.908Z,17.10
2019-02-26T09:58:04.522Z,17.10
2019-02-26T10:00:34.019Z,17.10
2019-02-26T10:03:05.279Z,17.10
2019-02-26T10:05:34.713Z,17.10
2019-02-26T10:08:05.338Z,17.10
2019-02-26T10:10:39.070Z,17.10
2019-02-26T10:13:06.094Z,17.10
2019-02-26T10:15:37.381Z,17.10
2019-02-26T10:18:09.338Z,17.10
2019-02-26T10:20:37.993Z,17.10
2019-02-26T10:23:07.520Z,17.10
2019-02-26T10:25:38.659Z,17.10
2019-02-26T10:28:10.422Z,17.10
2019-02-26T10:30:41.578Z,17.20
2019-02-26T10:33:10.514Z,17.20
2019-02-26T10:35:44.359Z,17.20
2019-02-26T10:38:11.747Z,17.20
2019-02-26T10:40:53.389Z,17.20
2019-02-26T10:43:12.517Z,17.30
2019-02-26T10:45:44.758Z,17.30
2019-02-26T10:48:13.794Z,17.40
2019-02-26T10:50:46.921Z,17.40
2019-02-26T10:53:18.939Z,17.40
2019-02-26T10:55:46.676Z,17.40
2019-02-26T10:58:16.204Z,17.50
2019-02-26T11:00:46.892Z,17.50
2019-02-26T11:03:17.409Z,17.50
2019-02-26T11:05:48.746Z,17.60
2019-02-26T11:08:20.559Z,17.60
2019-02-26T11:10:52.201Z,17.60
2019-02-26T11:13:24.928Z,17.60
2019-02-26T11:15:53.850Z,17.70
2019-02-26T11:21:05.333Z,17.70
2019-02-26T11:23:36.403Z,17.70
2019-02-26T11:26:06.698Z,17.70
2019-02-26T11:28:40.010Z,17.70
2019-02-26T11:31:09.010Z,17.70
2019-02-26T11:33:39.722Z,17.80
2019-02-26T11:36:11.128Z,17.70
2019-02-26T11:38:42.111Z,17.70
2019-02-26T11:41:11.560Z,17.80
2019-02-26T11:43:41.093Z,17.80
2019-02-26T11:46:10.598Z,17.70
2019-02-26T11:48:40.090Z,17.70
2019-02-26T11:51:09.621Z,17.80
2019-02-26T11:53:39.161Z,17.80
2019-02-26T11:56:09.082Z,17.80
2019-02-26T11:58:38.644Z,17.90
2019-02-26T12:01:13.769Z,17.90
2019-02-26T12:03:44.005Z,17.90
2019-02-26T12:06:13.567Z,17.90
2019-02-26T12:08:44.807Z,17.90
2019-02-26T12:11:17.704Z,17.90
2019-02-26T12:13:47.328Z,17.90
2019-02-26T12:16:16.519Z,18.00
2019-02-26T12:18:47.017Z,18.00
2019-02-26T12:21:16.668Z,18.00
2019-02-26T12:23:46.796Z,18.00
2019-02-26T12:26:18.988Z,18.00
2019-02-26T12:28:47.521Z,18.00
2019-02-26T12:31:16.998Z,18.10
2019-02-26T12:33:46.517Z,18.10
2019-02-26T12:36:16.015Z,18.10
2019-02-26T12:38:48.175Z,18.10
2019-02-26T12:41:19.083Z,18.10
2019-02-26T12:43:47.854Z,18.10
2019-02-26T12:46:19.206Z,18.10
2019-02-26T12:48:50.338Z,18.10
2019-02-26T12:51:22.482Z,18.20
2019-02-26T12:53:50.878Z,18.30
2019-02-26T12:56:21.491Z,18.30
2019-02-26T12:58:54.540Z,18.40
2019-02-26T13:01:23.171Z,18.60
2019-02-26T13:03:55.059Z,18.70
2019-02-26T13:06:23.898Z,18.80
2019-02-26T13:08:53.387Z,19.00
2019-02-26T13:11:24.943Z,19.10
2019-02-26T13:13:54.250Z,19.20
2019-02-26T13:16:23.804Z,19.30
2019-02-26T13:18:58.540Z,19.30
2019-02-26T13:21:24.504Z,19.40
2019-02-26T13:23:58.431Z,19.50
2019-02-26T13:26:25.182Z,19.50
2019-02-26T13:28:56.093Z,19.60
2019-02-26T13:31:25.837Z,19.70
2019-02-26T13:33:55.446Z,19.80
2019-02-26T13:36:24.994Z,19.90
2019-02-26T13:38:54.487Z,20.00
2019-02-26T13:43:55.181Z,20.20
2019-02-26T13:46:24.723Z,20.30
2019-02-26T13:48:54.245Z,20.40
2019-02-26T13:51:23.760Z,20.50
2019-02-26T13:53:53.251Z,20.50
2019-02-26T13:56:22.899Z,20.70
2019-02-26T13:58:52.417Z,20.80
2019-02-26T14:01:22.019Z,20.90
2019-02-26T14:03:51.541Z,21.00
2019-02-26T14:06:21.036Z,21.10
2019-02-26T14:08:50.615Z,21.20
2019-02-26T14:11:20.144Z,21.30
2019-02-26T14:13:50.115Z,21.40
2019-02-26T14:16:19.679Z,21.60
2019-02-26T14:18:49.250Z,21.60
2019-02-26T14:21:18.785Z,21.80
2019-02-26T14:23:48.282Z,21.80
2019-02-26T14:26:17.891Z,22.00
2019-02-26T14:28:50.377Z,22.10
2019-02-26T14:31:20.159Z,22.10
2019-02-26T14:33:49.784Z,22.20
2019-02-26T14:36:19.346Z,22.30
2019-02-26T14:38:48.853Z,22.40
2019-02-26T14:41:18.379Z,22.50
2019-02-26T14:43:47.875Z,22.60
2019-02-26T14:46:17.375Z,22.50
2019-02-26T14:48:46.904Z,22.60
2019-02-26T14:51:17.773Z,22.50
2019-02-26T14:53:49.147Z,22.50
2019-02-26T14:56:18.862Z,22.40
2019-02-26T14:58:49.465Z,22.50
2019-02-26T15:01:18.969Z,22.50
2019-02-26T15:03:48.482Z,22.50
2019-02-26T15:06:17.972Z,22.60
2019-02-26T15:08:47.472Z,22.60
2019-02-26T15:11:17.021Z,22.60
2019-02-26T15:13:46.541Z,22.60
2019-02-26T15:16:16.063Z,22.60
2019-02-26T15:18:45.599Z,22.70
2019-02-26T15:21:15.173Z,22.70
2019-02-26T15:23:44.679Z,22.80
2019-02-26T15:26:14.211Z,22.80
2019-02-26T15:28:43.811Z,22.90
2019-02-26T15:31:13.323Z,22.90
2019-02-26T15:33:42.863Z,22.90
2019-02-26T15:36:12.361Z,22.80
2019-02-26T15:38:41.880Z,22.80
2019-02-26T15:41:11.424Z,22.80
2019-02-26T15:43:40.922Z,22.80
2019-02-26T15:46:16.040Z,22.90
2019-02-26T15:48:45.549Z,22.90
2019-02-26T15:51:19.902Z,22.90
2019-02-26T15:53:46.468Z,22.90
2019-02-26T15:56:15.988Z,22.80
2019-02-26T15:58:45.555Z,22.80
2019-02-26T16:01:17.622Z,22.80
2019-02-26T16:03:53.954Z,22.80
2019-02-26T16:06:23.567Z,22.80
2019-02-26T16:08:53.102Z,22.80
2019-02-26T16:11:25.587Z,22.70
2019-02-26T16:14:02.789Z,22.60
2019-02-26T16:16:41.576Z,22.60
2019-02-26T16:19:17.284Z,22.60
2019-02-26T16:21:53.175Z,22.60
2019-02-26T16:24:27.677Z,22.50
2019-02-26T16:27:01.709Z,22.40
2019-02-26T16:29:40.899Z,22.20
2019-02-26T16:32:16.565Z,22.00
2019-02-26T16:34:46.178Z,21.90
2019-02-26T16:39:52.381Z,21.60
2019-02-26T16:42:25.859Z,21.50
2019-02-26T16:44:58.591Z,21.40
2019-02-26T16:47:27.353Z,21.30
2019-02-26T16:49:58.653Z,21.30
2019-02-26T16:52:28.513Z,21.20
2019-02-26T16:54:58.177Z,21.20
2019-02-26T16:57:33.580Z,21.10
2019-02-26T17:00:16.302Z,21.20
2019-02-26T17:02:52.584Z,21.10
2019-02-26T17:05:22.335Z,21.00
2019-02-26T17:07:51.995Z,21.20
2019-02-26T17:10:21.927Z,21.10
2019-02-26T17:12:55.102Z,21.00
2019-02-26T17:15:30.378Z,21.00
2019-02-26T17:18:00.018Z,21.00
2019-02-26T17:20:29.698Z,21.00
2019-02-26T17:22:59.422Z,20.90
2019-02-26T17:25:29.170Z,20.90
2019-02-26T17:27:58.816Z,20.90
2019-02-26T17:30:28.489Z,20.90
2019-02-26T17:32:58.249Z,20.90
2019-02-26T17:35:29.555Z,20.90
2019-02-26T17:37:59.454Z,20.80
2019-02-26T17:40:29.249Z,20.80
2019-02-26T17:42:59.614Z,20.80
2019-02-26T17:45:29.297Z,20.80
2019-02-26T17:47:58.912Z,20.80
2019-02-26T17:50:33.110Z,20.80
2019-02-26T17:53:04.028Z,20.70
2019-02-26T17:55:35.881Z,20.70
2019-02-26T17:58:09.817Z,20.70
2019-02-26T18:00:40.829Z,20.70
2019-02-26T18:03:10.531Z,20.70
2019-02-26T18:05:50.659Z,20.70
2019-02-26T18:08:11.429Z,20.70
2019-02-26T18:10:41.084Z,20.70
2019-02-26T18:13:10.692Z,20.70
2019-02-26T18:15:40.304Z,20.60
2019-02-26T18:18:09.949Z,20.60
2019-02-26T18:27:02.374Z,20.60
2019-02-26T18:29:32.063Z,20.60
2019-02-26T18:32:01.692Z,20.60
2019-02-26T18:34:31.450Z,20.60
2019-02-26T18:37:01.552Z,20.50
2019-02-26T18:39:32.493Z,20.60
2019-02-26T18:42:02.279Z,20.50
2019-02-26T18:44:31.864Z,20.50
2019-02-26T18:47:01.510Z,20.50
2019-02-26T18:49:58.219Z,20.50
2019-02-26T18:52:27.866Z,20.50
2019-02-26T18:54:57.520Z,20.40
2019-02-26T18:57:27.715Z,20.40
2019-02-26T19:00:05.712Z,20.40
2019-02-26T19:02:42.565Z,20.40
2019-02-26T19:05:21.079Z,20.40
2019-02-26T19:07:52.039Z,20.30
2019-02-26T19:10:23.466Z,20.40
2019-02-26T19:12:53.696Z,20.30
2019-02-26T19:15:23.353Z,20.30
2019-02-26T19:17:54.613Z,20.30
2019-02-26T19:20:26.446Z,20.30
2019-02-26T19:22:58.532Z,20.30
2019-02-26T19:25:27.447Z,20.30
2019-02-26T19:27:57.218Z,20.30
2019-02-26T19:30:26.904Z,20.30
2019-02-26T19:32:56.532Z,20.30
2019-02-26T19:35:26.190Z,20.30
2019-02-26T19:38:02.462Z,20.30
2019-02-26T19:40:38.676Z,20.30
2019-02-26T19:43:10.199Z,20.30
2019-02-26T19:45:43.683Z,20.30
2019-02-26T19:48:13.493Z,20.20
2019-02-26T19:50:47.849Z,20.20
2019-02-26T19:53:18.452Z,20.20
2019-02-26T19:55:49.684Z,20.20
2019-02-26T19:58:21.452Z,20.20
2019-02-26T20:00:52.994Z,20.20
2019-02-26T20:03:22.428Z,20.20
2019-02-26T20:05:52.037Z,20.10
2019-02-26T20:08:21.736Z,20.10
2019-02-26T20:10:53.904Z,20.10
2019-02-26T20:13:23.584Z,20.10
2019-02-26T20:15:54.839Z,20.10
2019-02-26T20:18:26.726Z,20.10
2019-02-26T20:20:56.492Z,20.10
2019-02-26T20:23:26.145Z,20.10
2019-02-26T20:25:56.016Z,20.00
2019-02-26T20:28:25.827Z,20.00
2019-02-26T20:30:57.690Z,20.00
2019-02-26T20:33:27.283Z,20.00
2019-02-26T20:35:59.266Z,20.00
2019-02-26T20:38:35.080Z,20.00
2019-02-26T20:41:03.584Z,19.90
2019-02-26T20:43:36.908Z,19.90
2019-02-26T20:46:07.420Z,19.90
2019-02-26T20:48:39.798Z,19.90
2019-02-26T20:51:11.032Z,19.90
2019-02-26T20:53:43.358Z,19.90
2019-02-26T20:56:14.404Z,19.90
2019-02-26T20:58:44.830Z,19.80
2019-02-26T21:01:15.696Z,19.80
2019-02-26T21:03:45.593Z,19.80
2019-02-26T21:06:18.083Z,19.80
2019-02-26T21:08:48.397Z,19.80
2019-02-26T21:11:22.461Z,19.80
2019-02-26T21:13:49.515Z,19.70
2019-02-26T21:16:20.940Z,19.70
2019-02-26T21:18:51.254Z,19.70
2019-02-26T21:21:20.924Z,19.70
2019-02-26T21:23:53.054Z,19.70
2019-02-26T21:26:22.929Z,19.70
2019-02-26T21:28:53.606Z,19.60
2019-02-26T21:31:23.210Z,19.60
2019-02-26T21:33:52.876Z,19.60
2019-02-26T21:36:22.546Z,19.60
2019-02-26T21:38:52.484Z,19.60
2019-02-26T21:41:23.553Z,19.60
2019-02-26T21:43:53.965Z,19.50
2019-02-26T21:46:23.564Z,19.50
2019-02-26T21:48:53.205Z,19.50
2019-02-26T21:51:22.868Z,19.50
2019-02-26T21:53:52.612Z,19.50
2019-02-26T21:56:22.272Z,19.40
2019-02-26T21:58:51.926Z,19.40
2019-02-26T22:01:21.548Z,19.40
2019-02-26T22:03:52.031Z,19.40
2019-02-26T22:06:21.712Z,19.40
2019-02-26T22:08:51.335Z,19.40
2019-02-26T22:11:20.988Z,19.40
2019-02-26T22:13:50.692Z,19.40
2019-02-26T22:16:21.743Z,19.30
2019-02-26T22:18:52.021Z,19.30
2019-02-26T22:21:24.142Z,19.30
2019-02-26T22:23:57.697Z,19.30
2019-02-26T22:26:27.408Z,19.30
2019-02-26T22:28:57.236Z,19.30
2019-02-26T22:31:28.960Z,19.20
2019-02-26T22:33:59.379Z,19.20
2019-02-26T22:36:33.997Z,19.20
2019-02-26T22:39:06.541Z,19.20
2019-02-26T22:41:39.594Z,19.20
2019-02-26T22:44:09.757Z,19.20
2019-02-26T22:46:42.518Z,19.20
2019-02-26T22:49:12.444Z,19.20
2019-02-26T22:51:42.132Z,19.10
2019-02-26T22:54:11.819Z,19.10
2019-02-26T22:56:41.409Z,19.10
2019-02-26T22:59:11.018Z,19.00
2019-02-26T23:01:45.229Z,19.00
2019-02-26T23:04:19.687Z,19.00
2019-02-26T23:06:50.060Z,19.00
2019-02-26T23:09:21.479Z,19.00
2019-02-26T23:11:51.267Z,19.00
2019-02-26T23:14:21.894Z,19.00
2019-02-26T23:16:52.039Z,19.00
2019-02-26T23:19:22.988Z,18.90
2019-02-26T23:21:52.824Z,18.90
2019-02-26T23:24:22.564Z,18.90
2019-02-26T23:26:58.455Z,18.90
2019-02-26T23:29:28.631Z,18.90
2019-02-26T23:31:59.945Z,18.90
2019-02-26T23:34:31.666Z,18.90
2019-02-26T23:37:01.487Z,18.90
2019-02-26T23:39:31.184Z,18.90
2019-02-26T23:42:00.824Z,18.90
2019-02-26T23:44:50.900Z,18.90
2019-02-26T23:47:19.687Z,18.80
2019-02-26T23:49:51.436Z,18.80
2019-02-26T23:52:21.144Z,18.80
2019-02-26T23:54:50.911Z,18.80
2019-02-26T23:57:22.724Z,18.80
2019-02-26T23:59:51.812Z,18.80
